createdAt,value
2023-04-21T00:00:33.177Z,950.34
2023-04-21T00:01:33.155Z,950.32
2023-04-21T00:02:35.382Z,950.31
2023-04-21T00:03:33.528Z,950.30
2023-04-21T00:04:33.319Z,950.24
2023-04-21T00:05:33.392Z,950.26
2023-04-21T00:06:33.114Z,950.21
2023-04-21T00:07:33.105Z,950.23
2023-04-21T00:08:33.075Z,950.25
2023-04-21T00:09:33.088Z,950.23
2023-04-21T00:10:33.082Z,950.20
2023-04-21T00:11:33.042Z,950.23
2023-04-21T00:12:33.051Z,950.19
2023-04-21T00:13:33.022Z,950.26
2023-04-21T00:14:33.007Z,950.18
2023-04-21T00:15:33.014Z,950.22
2023-04-21T00:16:33.218Z,950.24
2023-04-21T00:17:33.056Z,950.20
2023-04-21T00:18:32.965Z,950.14
2023-04-21T00:19:32.965Z,950.18
2023-04-21T00:20:32.959Z,950.17
2023-04-21T00:21:32.964Z,950.17
2023-04-21T00:22:32.950Z,950.15
2023-04-21T00:23:32.911Z,950.13
2023-04-21T00:24:32.901Z,950.17
2023-04-21T00:25:32.908Z,950.11
2023-04-21T00:26:32.874Z,950.19
2023-04-21T00:27:32.899Z,950.10
2023-04-21T00:28:32.850Z,950.10
2023-04-21T00:29:32.834Z,950.11
2023-04-21T00:30:32.839Z,950.12
2023-04-21T00:31:32.854Z,950.13
2023-04-21T00:32:32.859Z,950.08
2023-04-21T00:33:32.812Z,950.12
2023-04-21T00:34:32.785Z,950.06
2023-04-21T00:35:32.772Z,950.08
2023-04-21T00:36:32.799Z,950.14
2023-04-21T00:37:32.746Z,950.10
2023-04-21T00:38:32.739Z,950.09
2023-04-21T00:39:32.741Z,950.08
2023-04-21T00:40:32.745Z,950.04
2023-04-21T00:41:32.704Z,950.06
2023-04-21T00:42:32.694Z,950.07
2023-04-21T00:43:32.682Z,950.00
2023-04-21T00:44:41.854Z,949.99
2023-04-21T00:45:40.388Z,950.00
2023-04-21T00:46:40.447Z,949.89
2023-04-21T00:47:32.764Z,949.99
2023-04-21T00:48:32.751Z,949.89
2023-04-21T00:49:40.316Z,949.92
2023-04-21T00:50:40.284Z,949.95
2023-04-21T00:51:40.344Z,949.92
2023-04-21T00:52:32.713Z,949.95
2023-04-21T00:53:32.602Z,949.95
2023-04-21T00:54:41.487Z,949.94
2023-04-21T00:55:40.349Z,949.97
2023-04-21T00:56:32.635Z,949.96
2023-04-21T00:57:32.606Z,949.96
2023-04-21T00:58:32.510Z,949.91
2023-04-21T00:59:32.584Z,949.94
2023-04-21T01:00:32.631Z,949.99
2023-04-21T01:01:32.522Z,949.93
2023-04-21T01:02:32.572Z,949.90
2023-04-21T01:03:32.766Z,949.90
2023-04-21T01:04:32.455Z,949.93
2023-04-21T01:05:32.563Z,949.87
2023-04-21T01:06:32.417Z,949.90
2023-04-21T01:07:32.424Z,949.95
2023-04-21T01:08:32.435Z,949.92
2023-04-21T01:09:32.385Z,949.95
2023-04-21T01:10:32.376Z,949.91
2023-04-21T01:11:32.367Z,949.87
2023-04-21T01:12:32.380Z,949.91
2023-04-21T01:13:32.370Z,949.88
2023-04-21T01:14:32.351Z,949.93
2023-04-21T01:15:32.314Z,949.94
2023-04-21T01:16:32.329Z,949.87
2023-04-21T01:17:33.329Z,949.90
2023-04-21T01:18:32.318Z,949.93
2023-04-21T01:19:32.293Z,949.94
2023-04-21T01:20:32.258Z,949.96
2023-04-21T01:21:32.255Z,949.94
2023-04-21T01:22:32.257Z,949.92
2023-04-21T01:23:32.266Z,950.00
2023-04-21T01:24:32.252Z,949.94
2023-04-21T01:25:32.206Z,949.99
2023-04-21T01:26:32.195Z,949.94
2023-04-21T01:27:32.184Z,949.87
2023-04-21T01:28:32.194Z,949.94
2023-04-21T01:29:32.164Z,949.93
2023-04-21T01:30:32.170Z,949.95
2023-04-21T01:31:32.182Z,949.90
2023-04-21T01:32:32.249Z,949.94
2023-04-21T01:33:32.143Z,949.88
2023-04-21T01:34:32.106Z,949.86
2023-04-21T01:35:32.104Z,949.86
2023-04-21T01:36:32.103Z,949.91
2023-04-21T01:37:32.079Z,949.95
2023-04-21T01:38:32.089Z,949.88
2023-04-21T01:39:32.069Z,949.89
2023-04-21T01:40:32.045Z,949.87
2023-04-21T01:41:32.033Z,949.82
2023-04-21T01:42:32.143Z,949.85
2023-04-21T01:43:32.011Z,949.86
2023-04-21T01:44:32.014Z,949.86
2023-04-21T01:45:31.984Z,949.88
2023-04-21T01:46:32.011Z,949.83
2023-04-21T01:47:32.032Z,949.83
2023-04-21T01:48:31.964Z,949.90
2023-04-21T01:49:31.938Z,949.91
2023-04-21T01:50:31.948Z,949.88
2023-04-21T01:51:31.938Z,949.83
2023-04-21T01:52:31.907Z,949.88
2023-04-21T01:53:31.894Z,949.84
2023-04-21T01:54:31.920Z,949.86
2023-04-21T01:55:32.087Z,949.90
2023-04-21T01:56:31.874Z,949.88
2023-04-21T01:57:31.862Z,949.91
2023-04-21T01:58:31.845Z,949.87
2023-04-21T01:59:31.854Z,949.88
2023-04-21T02:00:31.852Z,949.89
2023-04-21T02:01:31.839Z,949.90
2023-04-21T02:02:31.918Z,949.87
2023-04-21T02:03:31.914Z,949.90
2023-04-21T02:04:31.871Z,949.95
2023-04-21T02:05:31.784Z,949.89
2023-04-21T02:06:31.761Z,949.87
2023-04-21T02:07:31.738Z,949.89
2023-04-21T02:08:31.723Z,949.88
2023-04-21T02:09:31.748Z,949.87
2023-04-21T02:10:31.728Z,949.89
2023-04-21T02:11:31.712Z,949.80
2023-04-21T02:12:31.699Z,949.85
2023-04-21T02:13:31.675Z,949.84
2023-04-21T02:14:31.665Z,949.83
2023-04-21T02:15:31.759Z,949.79
2023-04-21T02:16:31.667Z,949.83
2023-04-21T02:17:31.689Z,949.85
2023-04-21T02:18:31.625Z,949.83
2023-04-21T02:19:31.604Z,949.80
2023-04-21T02:20:31.648Z,949.81
2023-04-21T02:21:31.585Z,949.88
2023-04-21T02:22:31.574Z,949.83
2023-04-21T02:23:31.557Z,949.88
2023-04-21T02:24:31.559Z,949.90
2023-04-21T02:25:31.552Z,949.90
2023-04-21T02:26:31.545Z,949.86
2023-04-21T02:27:31.533Z,949.86
2023-04-21T02:28:31.499Z,949.92
2023-04-21T02:29:31.485Z,949.85
2023-04-21T02:30:31.484Z,949.91
2023-04-21T02:31:31.516Z,949.96
2023-04-21T02:32:31.578Z,949.92
2023-04-21T02:33:31.492Z,949.93
2023-04-21T02:34:31.427Z,949.92
2023-04-21T02:35:31.431Z,949.88
2023-04-21T02:36:31.443Z,949.97
2023-04-21T02:37:31.395Z,949.98
2023-04-21T02:38:31.406Z,950.01
2023-04-21T02:39:31.373Z,949.89
2023-04-21T02:40:31.362Z,949.88
2023-04-21T02:41:31.358Z,949.89
2023-04-21T02:42:31.356Z,949.83
2023-04-21T02:43:31.362Z,949.88
2023-04-21T02:44:31.323Z,949.91
2023-04-21T02:45:31.324Z,949.87
2023-04-21T02:46:31.353Z,949.90
2023-04-21T02:47:31.305Z,949.91
2023-04-21T02:48:31.311Z,949.91
2023-04-21T02:49:31.266Z,949.91
2023-04-21T02:50:31.249Z,949.85
2023-04-21T02:51:31.256Z,949.88
2023-04-21T02:52:31.220Z,949.87
2023-04-21T02:53:31.211Z,949.87
2023-04-21T02:54:31.219Z,949.94
2023-04-21T02:55:31.210Z,949.95
2023-04-21T02:56:31.176Z,949.90
2023-04-21T02:57:31.174Z,949.97
2023-04-21T02:58:32.233Z,949.94
2023-04-21T02:59:31.159Z,949.96
2023-04-21T03:00:31.234Z,949.94
2023-04-21T03:01:31.141Z,949.91
2023-04-21T03:02:31.186Z,949.91
2023-04-21T03:03:31.238Z,949.94
2023-04-21T03:04:31.168Z,949.92
2023-04-21T03:05:31.087Z,949.91
2023-04-21T03:06:31.080Z,949.96
2023-04-21T03:07:31.052Z,949.91
2023-04-21T03:08:31.101Z,949.92
2023-04-21T03:09:31.030Z,949.93
2023-04-21T03:10:31.022Z,949.90
2023-04-21T03:11:31.010Z,949.88
2023-04-21T03:12:31.044Z,949.90
2023-04-21T03:13:30.990Z,949.89
2023-04-21T03:14:30.973Z,949.86
2023-04-21T03:15:30.990Z,949.86
2023-04-21T03:16:30.984Z,949.86
2023-04-21T03:17:33.034Z,949.86
2023-04-21T03:18:30.971Z,949.92
2023-04-21T03:19:30.921Z,949.87
2023-04-21T03:20:30.906Z,949.82
2023-04-21T03:21:30.919Z,949.88
2023-04-21T03:22:30.883Z,949.85
2023-04-21T03:23:30.876Z,949.85
2023-04-21T03:24:30.901Z,949.81
2023-04-21T03:25:30.871Z,949.83
2023-04-21T03:26:30.886Z,949.92
2023-04-21T03:27:30.835Z,949.91
2023-04-21T03:28:30.828Z,949.86
2023-04-21T03:29:30.814Z,949.84
2023-04-21T03:30:30.837Z,949.88
2023-04-21T03:31:30.854Z,949.89
2023-04-21T03:32:30.792Z,949.91
2023-04-21T03:33:30.780Z,949.97
2023-04-21T03:34:30.769Z,949.95
2023-04-21T03:35:30.746Z,949.90
2023-04-21T03:36:30.771Z,949.99
2023-04-21T03:37:42.128Z,949.96
2023-04-21T03:38:30.761Z,949.98
2023-04-21T03:39:30.765Z,949.97
2023-04-21T03:40:30.769Z,949.94
2023-04-21T03:41:30.729Z,949.93
2023-04-21T03:42:30.684Z,949.93
2023-04-21T03:43:30.726Z,949.88
2023-04-21T03:44:30.689Z,949.94
2023-04-21T03:45:30.757Z,949.87
2023-04-21T03:46:30.730Z,949.86
2023-04-21T03:47:30.647Z,949.84
2023-04-21T03:48:30.589Z,949.86
2023-04-21T03:49:30.629Z,949.86
2023-04-21T03:50:30.607Z,949.83
2023-04-21T03:51:30.580Z,949.86
2023-04-21T03:52:30.546Z,949.84
2023-04-21T03:53:30.537Z,949.89
2023-04-21T03:54:30.540Z,949.82
2023-04-21T03:55:30.533Z,949.74
2023-04-21T03:56:30.531Z,949.80
2023-04-21T03:57:30.490Z,949.78
2023-04-21T03:58:30.486Z,949.78
2023-04-21T03:59:30.468Z,949.76
2023-04-21T04:00:30.513Z,949.71
2023-04-21T04:01:30.459Z,949.74
2023-04-21T04:02:30.564Z,949.71
2023-04-21T04:03:30.749Z,949.73
2023-04-21T04:04:30.722Z,949.75
2023-04-21T04:05:30.520Z,949.71
2023-04-21T04:06:30.408Z,949.74
2023-04-21T04:07:30.392Z,949.68
2023-04-21T04:08:30.374Z,949.70
2023-04-21T04:09:30.356Z,949.72
2023-04-21T04:10:30.355Z,949.68
2023-04-21T04:11:30.366Z,949.73
2023-04-21T04:12:30.322Z,949.71
2023-04-21T04:13:30.348Z,949.73
2023-04-21T04:14:30.302Z,949.71
2023-04-21T04:15:30.314Z,949.73
2023-04-21T04:16:30.320Z,949.78
2023-04-21T04:17:30.329Z,949.80
2023-04-21T04:18:30.258Z,949.86
2023-04-21T04:19:30.261Z,949.76
2023-04-21T04:20:30.253Z,949.83
2023-04-21T04:21:30.243Z,949.80
2023-04-21T04:22:30.210Z,949.84
2023-04-21T04:23:30.202Z,949.84
2023-04-21T04:24:30.194Z,949.85
2023-04-21T04:25:30.211Z,949.86
2023-04-21T04:26:30.171Z,949.86
2023-04-21T04:27:30.157Z,949.83
2023-04-21T04:28:30.142Z,949.87
2023-04-21T04:29:30.129Z,949.88
2023-04-21T04:30:30.140Z,949.89
2023-04-21T04:31:30.179Z,949.93
2023-04-21T04:32:30.171Z,949.89
2023-04-21T04:33:30.087Z,949.92
2023-04-21T04:34:30.076Z,949.93
2023-04-21T04:35:30.471Z,949.94
2023-04-21T04:36:30.049Z,949.93
2023-04-21T04:37:30.078Z,949.89
2023-04-21T04:38:30.029Z,949.90
2023-04-21T04:39:32.943Z,949.93
2023-04-21T04:40:30.019Z,949.93
2023-04-21T04:41:30.010Z,949.92
2023-04-21T04:42:30.002Z,949.89
2023-04-21T04:43:29.990Z,949.94
2023-04-21T04:44:29.956Z,949.90
2023-04-21T04:45:29.949Z,949.93
2023-04-21T04:46:29.980Z,949.91
2023-04-21T04:47:29.950Z,949.89
2023-04-21T04:48:29.922Z,949.91
2023-04-21T04:49:29.940Z,949.95
2023-04-21T04:50:29.890Z,949.94
2023-04-21T04:51:29.896Z,949.88
2023-04-21T04:52:29.889Z,949.95
2023-04-21T04:53:29.859Z,949.95
2023-04-21T04:54:29.867Z,949.91
2023-04-21T04:55:29.846Z,949.91
2023-04-21T04:56:29.832Z,949.87
2023-04-21T04:57:29.812Z,949.85
2023-04-21T04:58:29.801Z,949.87
2023-04-21T04:59:30.336Z,949.88
2023-04-21T05:00:29.789Z,949.88
2023-04-21T05:01:29.813Z,949.83
2023-04-21T05:02:29.818Z,949.84
2023-04-21T05:03:29.900Z,949.92
2023-04-21T05:04:29.996Z,949.87
2023-04-21T05:05:43.905Z,949.89
2023-04-21T05:06:29.765Z,949.90
2023-04-21T05:07:29.819Z,949.92
2023-04-21T05:08:29.835Z,949.93
2023-04-21T05:09:29.747Z,949.90
2023-04-21T05:10:29.709Z,949.96
2023-04-21T05:11:29.729Z,949.89
2023-04-21T05:12:29.699Z,949.96
2023-04-21T05:13:29.654Z,949.93
2023-04-21T05:14:29.702Z,949.97
2023-04-21T05:15:29.669Z,950.00
2023-04-21T05:16:29.709Z,949.89
2023-04-21T05:17:29.685Z,949.98
2023-04-21T05:18:29.673Z,949.97
2023-04-21T05:19:29.610Z,950.00
2023-04-21T05:20:29.620Z,949.99
2023-04-21T05:21:29.554Z,949.95
2023-04-21T05:22:29.633Z,949.97
2023-04-21T05:23:29.553Z,949.98
2023-04-21T05:24:29.570Z,950.05
2023-04-21T05:25:29.546Z,950.03
2023-04-21T05:26:29.620Z,950.03
2023-04-21T05:27:29.525Z,949.99
2023-04-21T05:28:29.469Z,949.97
2023-04-21T05:29:29.463Z,950.01
2023-04-21T05:30:29.442Z,950.02
2023-04-21T05:31:29.444Z,950.02
2023-04-21T05:32:29.684Z,950.03
2023-04-21T05:33:29.420Z,950.06
2023-04-21T05:34:29.396Z,950.05
2023-04-21T05:35:29.404Z,950.09
2023-04-21T05:36:29.377Z,950.08
2023-04-21T05:37:29.393Z,950.04
2023-04-21T05:38:29.394Z,950.03
2023-04-21T05:39:29.370Z,950.10
2023-04-21T05:40:29.352Z,950.09
2023-04-21T05:41:29.327Z,950.11
2023-04-21T05:42:29.307Z,950.09
2023-04-21T05:43:29.329Z,950.10
2023-04-21T05:44:29.290Z,950.11
2023-04-21T05:45:29.274Z,950.14
2023-04-21T05:46:29.337Z,950.15
2023-04-21T05:47:29.313Z,950.09
2023-04-21T05:48:29.247Z,950.13
2023-04-21T05:49:29.259Z,950.07
2023-04-21T05:50:29.219Z,950.10
2023-04-21T05:51:29.259Z,950.04
2023-04-21T05:52:29.197Z,950.10
2023-04-21T05:53:29.191Z,950.08
2023-04-21T05:54:29.455Z,950.14
2023-04-21T05:55:29.186Z,950.11
2023-04-21T05:56:29.182Z,950.12
2023-04-21T05:57:29.146Z,950.08
2023-04-21T05:58:29.136Z,950.09
2023-04-21T05:59:29.114Z,950.08
2023-04-21T06:00:29.179Z,950.12
2023-04-21T06:01:29.117Z,950.16
2023-04-21T06:02:29.390Z,950.09
2023-04-21T06:03:29.217Z,950.07
2023-04-21T06:04:29.449Z,950.07
2023-04-21T06:05:29.144Z,950.09
2023-04-21T06:06:29.049Z,950.08
2023-04-21T06:07:29.079Z,950.04
2023-04-21T06:08:29.039Z,950.12
2023-04-21T06:09:29.120Z,950.06
2023-04-21T06:10:29.086Z,949.98
2023-04-21T06:11:29.158Z,950.06
2023-04-21T06:12:29.399Z,950.00
2023-04-21T06:13:29.004Z,950.03
2023-04-21T06:14:28.945Z,950.01
2023-04-21T06:15:28.949Z,950.05
2023-04-21T06:16:31.648Z,950.11
2023-04-21T06:17:28.946Z,950.28
2023-04-21T06:18:28.915Z,950.44
2023-04-21T06:19:28.920Z,950.48
2023-04-21T06:20:28.922Z,950.46
2023-04-21T06:21:28.859Z,950.43
2023-04-21T06:22:28.936Z,950.45
2023-04-21T06:23:28.857Z,950.41
2023-04-21T06:24:28.832Z,950.36
2023-04-21T06:25:28.895Z,950.40
2023-04-21T06:26:28.826Z,950.40
2023-04-21T06:27:28.847Z,950.42
2023-04-21T06:28:28.790Z,950.39
2023-04-21T06:29:28.778Z,950.31
2023-04-21T06:30:28.869Z,950.37
2023-04-21T06:31:28.802Z,950.39
2023-04-21T06:32:28.769Z,950.34
2023-04-21T06:33:28.731Z,950.35
2023-04-21T06:34:28.719Z,950.36
2023-04-21T06:35:28.708Z,950.42
2023-04-21T06:36:28.742Z,950.30
2023-04-21T06:37:28.682Z,950.28
2023-04-21T06:38:28.675Z,950.41
2023-04-21T06:39:28.663Z,950.32
2023-04-21T06:40:28.672Z,950.22
2023-04-21T06:41:28.639Z,950.30
2023-04-21T06:42:29.479Z,950.28
2023-04-21T06:43:28.658Z,950.31
2023-04-21T06:44:28.607Z,950.28
2023-04-21T06:45:28.617Z,950.31
2023-04-21T06:46:28.638Z,950.29
2023-04-21T06:47:28.681Z,950.30
2023-04-21T06:48:28.579Z,950.30
2023-04-21T06:49:28.549Z,950.36
2023-04-21T06:50:28.540Z,950.37
2023-04-21T06:51:28.553Z,950.31
2023-04-21T06:52:28.517Z,950.28
2023-04-21T06:53:28.955Z,950.32
2023-04-21T06:54:28.504Z,950.22
2023-04-21T06:55:28.478Z,950.21
2023-04-21T06:56:28.506Z,950.17
2023-04-21T06:57:28.529Z,950.17
2023-04-21T06:58:28.466Z,950.05
2023-04-21T06:59:28.494Z,950.06
2023-04-21T07:00:28.428Z,950.00
2023-04-21T07:01:29.483Z,950.03
2023-04-21T07:02:28.548Z,949.95
2023-04-21T07:03:28.464Z,949.98
2023-04-21T07:04:28.410Z,949.98
2023-04-21T07:05:28.375Z,950.08
2023-04-21T07:06:28.364Z,949.99
2023-04-21T07:07:28.360Z,949.97
2023-04-21T07:08:28.381Z,950.00
2023-04-21T07:09:28.323Z,950.01
2023-04-21T07:10:28.327Z,950.01
2023-04-21T07:11:28.326Z,949.98
2023-04-21T07:12:28.317Z,950.01
2023-04-21T07:13:28.435Z,949.96
2023-04-21T07:14:28.278Z,950.06
2023-04-21T07:15:28.328Z,949.99
2023-04-21T07:16:28.293Z,950.04
2023-04-21T07:17:28.277Z,949.99
2023-04-21T07:18:28.254Z,949.98
2023-04-21T07:19:28.623Z,950.05
2023-04-21T07:20:28.227Z,950.01
2023-04-21T07:21:28.215Z,950.07
2023-04-21T07:22:28.205Z,950.10
2023-04-21T07:23:28.200Z,950.08
2023-04-21T07:24:28.257Z,950.10
2023-04-21T07:25:35.845Z,950.11
2023-04-21T07:26:28.164Z,950.04
2023-04-21T07:27:28.164Z,950.03
2023-04-21T07:28:28.126Z,950.00
2023-04-21T07:29:28.110Z,950.05
2023-04-21T07:30:28.102Z,949.97
2023-04-21T07:31:28.192Z,950.02
2023-04-21T07:32:28.117Z,950.05
2023-04-21T07:33:28.059Z,949.98
2023-04-21T07:34:28.049Z,950.02
2023-04-21T07:35:28.042Z,950.04
2023-04-21T07:36:28.333Z,949.98
2023-04-21T07:37:28.019Z,950.01
2023-04-21T07:38:28.563Z,950.01
2023-04-21T07:39:28.002Z,950.05
2023-04-21T07:40:27.980Z,950.01
2023-04-21T07:41:28.014Z,949.98
2023-04-21T07:42:27.972Z,950.02
2023-04-21T07:43:27.947Z,950.01
2023-04-21T07:44:27.958Z,950.08
2023-04-21T07:45:27.930Z,950.01
2023-04-21T07:46:27.942Z,950.01
2023-04-21T07:47:28.067Z,950.00
2023-04-21T07:48:27.915Z,950.00
2023-04-21T07:49:30.453Z,949.98
2023-04-21T07:50:27.876Z,950.00
2023-04-21T07:51:27.860Z,949.98
2023-04-21T07:52:27.870Z,949.96
2023-04-21T07:53:27.843Z,950.04
2023-04-21T07:54:28.525Z,950.03
2023-04-21T07:55:27.812Z,950.06
2023-04-21T07:56:27.843Z,950.04
2023-04-21T07:57:27.797Z,950.05
2023-04-21T07:58:27.778Z,950.08
2023-04-21T07:59:27.771Z,950.12
2023-04-21T08:00:27.796Z,950.06
2023-04-21T08:01:27.758Z,950.05
2023-04-21T08:02:27.850Z,950.07
2023-04-21T08:03:27.935Z,950.12
2023-04-21T08:04:27.787Z,950.04
2023-04-21T08:05:31.388Z,950.03
2023-04-21T08:06:28.856Z,950.09
2023-04-21T08:07:27.673Z,950.14
2023-04-21T08:08:28.348Z,950.23
2023-04-21T08:09:27.651Z,950.06
2023-04-21T08:10:27.661Z,950.11
2023-04-21T08:11:27.634Z,950.06
2023-04-21T08:12:27.633Z,950.07
2023-04-21T08:13:27.649Z,950.07
2023-04-21T08:14:27.625Z,950.06
2023-04-21T08:15:27.604Z,950.04
2023-04-21T08:16:27.636Z,950.03
2023-04-21T08:17:27.573Z,950.04
2023-04-21T08:18:27.592Z,950.06
2023-04-21T08:19:27.577Z,950.02
2023-04-21T08:20:27.571Z,949.99
2023-04-21T08:21:29.463Z,950.01
2023-04-21T08:22:27.536Z,950.02
2023-04-21T08:23:27.527Z,950.10
2023-04-21T08:24:27.489Z,950.10
2023-04-21T08:25:27.474Z,950.21
2023-04-21T08:26:27.489Z,950.04
2023-04-21T08:27:27.471Z,950.05
2023-04-21T08:28:27.469Z,950.05
2023-04-21T08:29:27.708Z,950.04
2023-04-21T08:30:27.449Z,949.99
2023-04-21T08:31:27.441Z,949.89
2023-04-21T08:32:27.485Z,949.97
2023-04-21T08:33:27.378Z,950.01
2023-04-21T08:34:27.995Z,949.98
2023-04-21T08:35:27.370Z,949.97
2023-04-21T08:36:29.990Z,949.97
2023-04-21T08:37:27.375Z,949.98
2023-04-21T08:38:27.325Z,949.97
2023-04-21T08:39:27.315Z,949.94
2023-04-21T08:40:27.300Z,949.95
2023-04-21T08:41:27.304Z,950.02
2023-04-21T08:42:27.286Z,949.97
2023-04-21T08:43:27.314Z,949.95
2023-04-21T08:44:27.250Z,950.00
2023-04-21T08:45:27.332Z,949.97
2023-04-21T08:46:27.390Z,949.99
2023-04-21T08:47:27.308Z,949.83
2023-04-21T08:48:27.220Z,949.97
2023-04-21T08:49:27.218Z,949.98
2023-04-21T08:50:27.189Z,949.98
2023-04-21T08:51:27.201Z,949.92
2023-04-21T08:52:27.182Z,949.91
2023-04-21T08:53:27.149Z,949.93
2023-04-21T08:54:28.653Z,949.87
2023-04-21T08:55:27.132Z,949.93
2023-04-21T08:56:27.148Z,949.90
2023-04-21T08:57:27.138Z,949.91
2023-04-21T08:58:27.104Z,949.89
2023-04-21T08:59:27.110Z,949.92
2023-04-21T09:00:27.086Z,949.92
2023-04-21T09:01:27.140Z,949.93
2023-04-21T09:02:27.204Z,949.91
2023-04-21T09:03:27.156Z,949.95
2023-04-21T09:04:27.268Z,949.91
2023-04-21T09:05:27.189Z,949.96
2023-04-21T09:06:27.038Z,949.99
2023-04-21T09:07:27.015Z,949.92
2023-04-21T09:08:26.990Z,949.88
2023-04-21T09:09:27.000Z,949.91
2023-04-21T09:10:26.975Z,949.85
2023-04-21T09:11:26.952Z,949.85
2023-04-21T09:12:26.967Z,949.89
2023-04-21T09:13:26.928Z,949.97
2023-04-21T09:14:26.918Z,949.88
2023-04-21T09:15:26.926Z,949.88
2023-04-21T09:16:26.946Z,949.89
2023-04-21T09:17:26.918Z,949.90
2023-04-21T09:18:26.894Z,949.90
2023-04-21T09:19:26.854Z,949.85
2023-04-21T09:20:26.872Z,949.83
2023-04-21T09:21:26.841Z,949.88
2023-04-21T09:22:27.129Z,949.89
2023-04-21T09:23:26.838Z,949.92
2023-04-21T09:24:26.840Z,949.89
2023-04-21T09:25:26.827Z,949.87
2023-04-21T09:26:26.800Z,949.93
2023-04-21T09:27:26.780Z,949.86
2023-04-21T09:28:26.801Z,949.89
2023-04-21T09:29:26.760Z,949.83
2023-04-21T09:30:26.771Z,949.83
2023-04-21T09:31:26.824Z,949.89
2023-04-21T09:32:26.784Z,949.95
2023-04-21T09:33:32.391Z,950.00
2023-04-21T09:34:27.697Z,949.92
2023-04-21T09:35:26.701Z,949.92
2023-04-21T09:36:26.698Z,949.94
2023-04-21T09:37:26.663Z,949.93
2023-04-21T09:38:26.656Z,949.92
2023-04-21T09:39:40.466Z,949.86
2023-04-21T09:40:27.650Z,949.83
2023-04-21T09:41:26.620Z,949.85
2023-04-21T09:42:26.615Z,949.89
2023-04-21T09:43:26.590Z,949.88
2023-04-21T09:44:27.392Z,949.88
2023-04-21T09:45:39.139Z,949.85
2023-04-21T09:46:27.658Z,949.89
2023-04-21T09:47:26.599Z,949.88
2023-04-21T09:48:26.552Z,949.82
2023-04-21T09:49:26.531Z,949.81
2023-04-21T09:51:07.122Z,949.83
2023-04-21T09:51:40.403Z,949.81
2023-04-21T09:52:27.490Z,949.78
2023-04-21T09:53:26.485Z,949.86
2023-04-21T09:54:30.172Z,949.87
2023-04-21T09:55:26.574Z,949.88
2023-04-21T09:56:26.447Z,949.93
2023-04-21T09:57:26.455Z,949.94
2023-04-21T09:58:26.481Z,949.93
2023-04-21T09:59:26.470Z,949.87
2023-04-21T10:00:26.539Z,949.86
2023-04-21T10:01:26.419Z,949.84
2023-04-21T10:02:26.671Z,949.85
2023-04-21T10:03:26.500Z,949.82
2023-04-21T10:04:26.991Z,949.80
2023-04-21T10:05:26.428Z,949.83
2023-04-21T10:06:26.468Z,949.81
2023-04-21T10:07:26.364Z,949.84
2023-04-21T10:08:26.312Z,949.86
2023-04-21T10:09:26.311Z,949.88
2023-04-21T10:10:26.294Z,949.85
2023-04-21T10:11:26.308Z,949.90
2023-04-21T10:12:26.303Z,949.83
2023-04-21T10:13:26.291Z,949.87
2023-04-21T10:14:26.252Z,949.87
2023-04-21T10:15:26.240Z,949.88
2023-04-21T10:16:26.269Z,949.92
2023-04-21T10:17:26.287Z,949.81
2023-04-21T10:18:26.289Z,949.85
2023-04-21T10:19:26.203Z,949.86
2023-04-21T10:20:26.201Z,949.85
2023-04-21T10:21:26.169Z,949.83
2023-04-21T10:22:26.162Z,949.81
2023-04-21T10:23:33.350Z,949.82
2023-04-21T10:24:33.792Z,949.79
2023-04-21T10:25:26.153Z,949.75
2023-04-21T10:26:26.108Z,949.80
2023-04-21T10:27:33.295Z,949.82
2023-04-21T10:28:33.295Z,949.80
2023-04-21T10:29:26.107Z,949.79
2023-04-21T10:30:26.118Z,949.76
2023-04-21T10:31:26.098Z,949.85
2023-04-21T10:32:26.102Z,949.86
2023-04-21T10:33:26.159Z,949.79
2023-04-21T10:34:26.039Z,949.78
2023-04-21T10:35:26.036Z,949.78
2023-04-21T10:36:26.035Z,949.81
2023-04-21T10:37:25.994Z,949.82
2023-04-21T10:38:25.978Z,949.81
2023-04-21T10:39:25.979Z,949.78
2023-04-21T10:40:41.983Z,949.85
2023-04-21T10:41:26.972Z,949.81
2023-04-21T10:42:25.933Z,949.85
2023-04-21T10:43:25.944Z,949.84
2023-04-21T10:44:25.929Z,949.83
2023-04-21T10:45:25.901Z,949.82
2023-04-21T10:46:25.909Z,949.75
2023-04-21T10:47:25.949Z,949.84
2023-04-21T10:48:25.865Z,949.83
2023-04-21T10:49:25.901Z,949.89
2023-04-21T10:50:25.877Z,949.84
2023-04-21T10:51:25.838Z,949.80
2023-04-21T10:52:25.824Z,949.82
2023-04-21T10:53:25.873Z,949.82
2023-04-21T10:54:25.793Z,949.79
2023-04-21T10:55:25.824Z,949.77
2023-04-21T10:56:25.789Z,949.72
2023-04-21T10:57:25.766Z,949.77
2023-04-21T10:58:25.767Z,949.76
2023-04-21T10:59:27.742Z,949.73
2023-04-21T11:00:25.731Z,949.76
2023-04-21T11:01:25.819Z,949.82
2023-04-21T11:02:25.881Z,949.80
2023-04-21T11:03:25.824Z,949.71
2023-04-21T11:04:26.286Z,949.77
2023-04-21T11:05:25.673Z,949.92
2023-04-21T11:06:25.663Z,949.68
2023-04-21T11:07:25.672Z,949.73
2023-04-21T11:08:25.655Z,949.69
2023-04-21T11:09:25.648Z,949.73
2023-04-21T11:10:25.610Z,949.72
2023-04-21T11:11:25.664Z,949.77
2023-04-21T11:12:25.630Z,949.78
2023-04-21T11:13:25.596Z,949.72
2023-04-21T11:14:25.579Z,949.71
2023-04-21T11:15:25.587Z,949.75
2023-04-21T11:16:25.575Z,949.73
2023-04-21T11:17:25.611Z,949.75
2023-04-21T11:18:25.565Z,949.74
2023-04-21T11:19:25.513Z,949.74
2023-04-21T11:20:25.519Z,949.66
2023-04-21T11:21:25.567Z,949.63
2023-04-21T11:22:25.478Z,949.65
2023-04-21T11:23:25.499Z,949.60
2023-04-21T11:24:25.456Z,949.63
2023-04-21T11:25:25.448Z,949.62
2023-04-21T11:26:25.466Z,949.65
2023-04-21T11:27:25.424Z,949.64
2023-04-21T11:28:25.409Z,949.61
2023-04-21T11:29:25.398Z,949.65
2023-04-21T11:30:25.388Z,949.62
2023-04-21T11:31:25.463Z,949.66
2023-04-21T11:32:25.426Z,949.61
2023-04-21T11:33:25.354Z,949.63
2023-04-21T11:34:25.348Z,949.63
2023-04-21T11:35:25.334Z,949.55
2023-04-21T11:36:25.325Z,949.63
2023-04-21T11:37:25.331Z,949.62
2023-04-21T11:38:25.319Z,949.49
2023-04-21T11:39:25.289Z,949.57
2023-04-21T11:40:25.294Z,949.60
2023-04-21T11:41:25.268Z,949.57
2023-04-21T11:42:25.278Z,949.59
2023-04-21T11:43:25.243Z,949.49
2023-04-21T11:44:25.249Z,949.56
2023-04-21T11:45:25.226Z,949.60
2023-04-21T11:46:25.258Z,949.58
2023-04-21T11:47:25.473Z,949.55
2023-04-21T11:48:25.192Z,949.57
2023-04-21T11:49:25.178Z,949.59
2023-04-21T11:50:25.166Z,949.52
2023-04-21T11:51:25.203Z,949.60
2023-04-21T11:52:25.145Z,949.54
2023-04-21T11:53:25.161Z,949.53
2023-04-21T11:54:25.144Z,949.59
2023-04-21T11:55:25.114Z,949.58
2023-04-21T11:56:25.102Z,949.63
2023-04-21T11:57:25.121Z,949.53
2023-04-21T11:58:25.080Z,949.57
2023-04-21T11:59:26.069Z,949.57
2023-04-21T12:00:25.069Z,949.49
2023-04-21T12:01:25.060Z,949.45
2023-04-21T12:02:25.222Z,949.43
2023-04-21T12:03:25.279Z,949.48
2023-04-21T12:04:25.117Z,949.45
2023-04-21T12:05:25.053Z,949.47
2023-04-21T12:06:25.014Z,949.52
2023-04-21T12:07:24.993Z,949.52
2023-04-21T12:08:24.963Z,949.56
2023-04-21T12:09:24.983Z,949.42
2023-04-21T12:10:24.942Z,949.55
2023-04-21T12:11:24.940Z,949.60
2023-04-21T12:12:24.921Z,949.50
2023-04-21T12:13:24.930Z,949.55
2023-04-21T12:14:24.898Z,949.53
2023-04-21T12:15:24.902Z,949.50
2023-04-21T12:16:24.919Z,949.52
2023-04-21T12:17:24.906Z,949.44
2023-04-21T12:18:24.871Z,949.52
2023-04-21T12:19:24.875Z,949.59
2023-04-21T12:20:24.839Z,949.49
2023-04-21T12:21:24.833Z,949.52
2023-04-21T12:22:24.826Z,949.50
2023-04-21T12:23:24.793Z,949.50
2023-04-21T12:24:24.784Z,949.45
2023-04-21T12:25:24.803Z,949.45
2023-04-21T12:26:24.981Z,949.53
2023-04-21T12:27:24.778Z,949.49
2023-04-21T12:28:24.763Z,949.39